sensor_id;sensor_type;location;lat;lon;timestamp;P1;durP1;ratioP1;P2;durP2;ratioP2
14619;SDS011;32125;48.518;9.050;2022-12-16T00:00:27;52.90;;;30.93;;
14619;SDS011;32125;48.518;9.050;2022-12-16T00:02:53;53.53;;;32.63;;
14619;SDS011;32125;48.518;9.050;2022-12-16T00:05:19;53.30;;;31.43;;
14619;SDS011;32125;48.518;9.050;2022-12-16T00:07:50;47.43;;;29.40;;
14619;SDS011;32125;48.518;9.050;2022-12-16T00:10:16;46.60;;;28.63;;
14619;SDS011;32125;48.518;9.050;2022-12-16T00:12:42;47.87;;;29.20;;
14619;SDS011;32125;48.518;9.050;2022-12-16T00:15:10;44.03;;;27.70;;
14619;SDS011;32125;48.518;9.050;2022-12-16T00:17:36;48.13;;;29.10;;
14619;SDS011;32125;48.518;9.050;2022-12-16T00:20:03;53.87;;;31.43;;
14619;SDS011;32125;48.518;9.050;2022-12-16T00:22:30;51.63;;;30.17;;
14619;SDS011;32125;48.518;9.050;2022-12-16T00:24:59;51.80;;;30.43;;
14619;SDS011;32125;48.518;9.050;2022-12-16T00:27:25;53.50;;;31.53;;
14619;SDS011;32125;48.518;9.050;2022-12-16T00:29:51;52.20;;;29.27;;
14619;SDS011;32125;48.518;9.050;2022-12-16T00:32:17;48.27;;;29.57;;
14619;SDS011;32125;48.518;9.050;2022-12-16T00:34:46;49.77;;;30.73;;
14619;SDS011;32125;48.518;9.050;2022-12-16T00:37:12;53.53;;;31.70;;
14619;SDS011;32125;48.518;9.050;2022-12-16T00:39:38;53.67;;;31.33;;
14619;SDS011;32125;48.518;9.050;2022-12-16T00:42:04;53.30;;;32.17;;
14619;SDS011;32125;48.518;9.050;2022-12-16T00:44:30;50.43;;;31.07;;
14619;SDS011;32125;48.518;9.050;2022-12-16T00:46:56;57.27;;;32.53;;
14619;SDS011;32125;48.518;9.050;2022-12-16T00:49:22;54.43;;;32.33;;
14619;SDS011;32125;48.518;9.050;2022-12-16T00:51:48;52.17;;;31.93;;
14619;SDS011;32125;48.518;9.050;2022-12-16T00:54:14;58.10;;;34.07;;
14619;SDS011;32125;48.518;9.050;2022-12-16T00:56:40;55.93;;;32.87;;
14619;SDS011;32125;48.518;9.050;2022-12-16T00:59:06;57.43;;;32.87;;
14619;SDS011;32125;48.518;9.050;2022-12-16T01:01:32;64.40;;;34.53;;
14619;SDS011;32125;48.518;9.050;2022-12-16T01:03:58;58.70;;;33.93;;
14619;SDS011;32125;48.518;9.050;2022-12-16T01:06:24;60.17;;;34.80;;
14619;SDS011;32125;48.518;9.050;2022-12-16T01:08:53;54.63;;;32.80;;
14619;SDS011;32125;48.518;9.050;2022-12-16T01:11:19;54.77;;;32.30;;
14619;SDS011;32125;48.518;9.050;2022-12-16T01:13:45;51.70;;;31.67;;
14619;SDS011;32125;48.518;9.050;2022-12-16T01:16:11;56.10;;;31.80;;
14619;SDS011;32125;48.518;9.050;2022-12-16T01:18:38;55.37;;;32.57;;
14619;SDS011;32125;48.518;9.050;2022-12-16T01:21:05;55.80;;;33.60;;
14619;SDS011;32125;48.518;9.050;2022-12-16T01:23:34;61.20;;;35.73;;
14619;SDS011;32125;48.518;9.050;2022-12-16T01:26:00;58.23;;;34.60;;
14619;SDS011;32125;48.518;9.050;2022-12-16T01:28:27;59.13;;;33.87;;
14619;SDS011;32125;48.518;9.050;2022-12-16T01:30:56;56.23;;;33.27;;
14619;SDS011;32125;48.518;9.050;2022-12-16T01:33:28;52.80;;;32.63;;
14619;SDS011;32125;48.518;9.050;2022-12-16T01:36:02;52.80;;;30.87;;
14619;SDS011;32125;48.518;9.050;2022-12-16T01:38:30;51.97;;;30.60;;
14619;SDS011;32125;48.518;9.050;2022-12-16T01:40:56;52.67;;;31.80;;
14619;SDS011;32125;48.518;9.050;2022-12-16T01:43:27;54.07;;;31.47;;
14619;SDS011;32125;48.518;9.050;2022-12-16T01:51:10;57.80;;;34.37;;
14619;SDS011;32125;48.518;9.050;2022-12-16T01:54:00;60.40;;;33.27;;
14619;SDS011;32125;48.518;9.050;2022-12-16T01:56:33;57.30;;;32.70;;
14619;SDS011;32125;48.518;9.050;2022-12-16T01:59:00;55.50;;;32.50;;
14619;SDS011;32125;48.518;9.050;2022-12-16T02:01:26;53.03;;;31.43;;
14619;SDS011;32125;48.518;9.050;2022-12-16T02:03:55;56.33;;;33.53;;
14619;SDS011;32125;48.518;9.050;2022-12-16T02:06:25;57.17;;;32.23;;
14619;SDS011;32125;48.518;9.050;2022-12-16T02:08:54;57.17;;;32.27;;
14619;SDS011;32125;48.518;9.050;2022-12-16T02:14:21;63.77;;;34.83;;
14619;SDS011;32125;48.518;9.050;2022-12-16T02:17:07;56.67;;;34.57;;
14619;SDS011;32125;48.518;9.050;2022-12-16T02:33:50;55.07;;;32.80;;
14619;SDS011;32125;48.518;9.050;2022-12-16T02:36:25;57.17;;;34.73;;
14619;SDS011;32125;48.518;9.050;2022-12-16T02:38:58;58.33;;;33.10;;
14619;SDS011;32125;48.518;9.050;2022-12-16T02:46:22;57.53;;;33.23;;
14619;SDS011;32125;48.518;9.050;2022-12-16T02:48:49;60.10;;;33.43;;
14619;SDS011;32125;48.518;9.050;2022-12-16T02:51:15;58.20;;;31.93;;
14619;SDS011;32125;48.518;9.050;2022-12-16T02:53:41;61.43;;;33.83;;
14619;SDS011;32125;48.518;9.050;2022-12-16T02:56:23;54.07;;;31.40;;
14619;SDS011;32125;48.518;9.050;2022-12-16T02:58:56;55.40;;;32.57;;
14619;SDS011;32125;48.518;9.050;2022-12-16T03:07:03;50.43;;;29.90;;
14619;SDS011;32125;48.518;9.050;2022-12-16T03:09:34;54.10;;;31.87;;
14619;SDS011;32125;48.518;9.050;2022-12-16T03:12:02;52.87;;;31.73;;
14619;SDS011;32125;48.518;9.050;2022-12-16T03:14:33;52.33;;;30.87;;
14619;SDS011;32125;48.518;9.050;2022-12-16T03:17:02;55.97;;;32.87;;
14619;SDS011;32125;48.518;9.050;2022-12-16T03:19:29;51.63;;;31.40;;
14619;SDS011;32125;48.518;9.050;2022-12-16T03:22:11;52.47;;;30.70;;
14619;SDS011;32125;48.518;9.050;2022-12-16T03:24:49;57.90;;;32.33;;
14619;SDS011;32125;48.518;9.050;2022-12-16T03:27:34;57.90;;;33.87;;
14619;SDS011;32125;48.518;9.050;2022-12-16T03:30:21;58.10;;;32.70;;
14619;SDS011;32125;48.518;9.050;2022-12-16T03:37:50;59.53;;;33.87;;
14619;SDS011;32125;48.518;9.050;2022-12-16T03:40:19;55.60;;;32.63;;
14619;SDS011;32125;48.518;9.050;2022-12-16T03:42:46;54.77;;;31.83;;
14619;SDS011;32125;48.518;9.050;2022-12-16T03:45:14;59.50;;;33.70;;
14619;SDS011;32125;48.518;9.050;2022-12-16T03:47:52;62.77;;;35.43;;
14619;SDS011;32125;48.518;9.050;2022-12-16T03:50:23;58.23;;;33.20;;
14619;SDS011;32125;48.518;9.050;2022-12-16T03:52:52;57.70;;;33.60;;
14619;SDS011;32125;48.518;9.050;2022-12-16T03:55:18;58.90;;;34.83;;
14619;SDS011;32125;48.518;9.050;2022-12-16T03:57:44;60.10;;;34.97;;
14619;SDS011;32125;48.518;9.050;2022-12-16T04:00:10;59.40;;;34.83;;
14619;SDS011;32125;48.518;9.050;2022-12-16T04:02:36;57.63;;;32.97;;
14619;SDS011;32125;48.518;9.050;2022-12-16T04:05:02;54.63;;;32.37;;
14619;SDS011;32125;48.518;9.050;2022-12-16T04:07:28;61.57;;;33.30;;
14619;SDS011;32125;48.518;9.050;2022-12-16T04:09:55;54.37;;;32.87;;
14619;SDS011;32125;48.518;9.050;2022-12-16T04:12:21;54.03;;;32.83;;
14619;SDS011;32125;48.518;9.050;2022-12-16T04:15:06;56.60;;;32.97;;
14619;SDS011;32125;48.518;9.050;2022-12-16T04:17:50;57.40;;;33.00;;
14619;SDS011;32125;48.518;9.050;2022-12-16T04:20:36;57.37;;;32.60;;
14619;SDS011;32125;48.518;9.050;2022-12-16T04:23:23;58.27;;;33.23;;
14619;SDS011;32125;48.518;9.050;2022-12-16T04:26:08;60.00;;;34.13;;
14619;SDS011;32125;48.518;9.050;2022-12-16T04:28:35;56.33;;;32.90;;
14619;SDS011;32125;48.518;9.050;2022-12-16T04:31:01;54.87;;;32.70;;
14619;SDS011;32125;48.518;9.050;2022-12-16T04:33:27;58.03;;;32.50;;
14619;SDS011;32125;48.518;9.050;2022-12-16T04:36:14;55.87;;;33.17;;
14619;SDS011;32125;48.518;9.050;2022-12-16T04:38:58;54.57;;;32.80;;
14619;SDS011;32125;48.518;9.050;2022-12-16T04:41:43;56.37;;;31.80;;
14619;SDS011;32125;48.518;9.050;2022-12-16T04:44:27;57.93;;;32.93;;
14619;SDS011;32125;48.518;9.050;2022-12-16T04:47:12;53.80;;;31.33;;
14619;SDS011;32125;48.518;9.050;2022-12-16T04:49:57;58.20;;;31.70;;
14619;SDS011;32125;48.518;9.050;2022-12-16T05:03:50;50.97;;;30.27;;
14619;SDS011;32125;48.518;9.050;2022-12-16T05:06:34;55.73;;;32.57;;
14619;SDS011;32125;48.518;9.050;2022-12-16T05:09:19;54.87;;;32.77;;
14619;SDS011;32125;48.518;9.050;2022-12-16T05:12:03;50.93;;;29.93;;
14619;SDS011;32125;48.518;9.050;2022-12-16T05:14:48;54.63;;;32.33;;
14619;SDS011;32125;48.518;9.050;2022-12-16T05:17:33;52.67;;;31.37;;
14619;SDS011;32125;48.518;9.050;2022-12-16T05:20:17;53.13;;;31.90;;
14619;SDS011;32125;48.518;9.050;2022-12-16T05:23:02;52.57;;;31.67;;
14619;SDS011;32125;48.518;9.050;2022-12-16T05:25:46;55.40;;;31.57;;
14619;SDS011;32125;48.518;9.050;2022-12-16T05:28:32;55.37;;;32.50;;
14619;SDS011;32125;48.518;9.050;2022-12-16T05:31:17;57.60;;;33.57;;
14619;SDS011;32125;48.518;9.050;2022-12-16T05:34:02;54.67;;;31.37;;
14619;SDS011;32125;48.518;9.050;2022-12-16T05:36:46;52.23;;;31.33;;
14619;SDS011;32125;48.518;9.050;2022-12-16T05:39:31;53.53;;;31.50;;
14619;SDS011;32125;48.518;9.050;2022-12-16T05:42:15;50.47;;;30.83;;
14619;SDS011;32125;48.518;9.050;2022-12-16T05:45:13;56.67;;;33.27;;
14619;SDS011;32125;48.518;9.050;2022-12-16T05:47:58;56.87;;;33.07;;
14619;SDS011;32125;48.518;9.050;2022-12-16T05:50:43;56.83;;;32.50;;
14619;SDS011;32125;48.518;9.050;2022-12-16T05:53:27;50.73;;;30.43;;
14619;SDS011;32125;48.518;9.050;2022-12-16T05:56:12;52.43;;;32.27;;
14619;SDS011;32125;48.518;9.050;2022-12-16T05:58:56;50.33;;;30.73;;
14619;SDS011;32125;48.518;9.050;2022-12-16T06:01:41;52.60;;;30.30;;
14619;SDS011;32125;48.518;9.050;2022-12-16T06:04:33;55.93;;;31.97;;
14619;SDS011;32125;48.518;9.050;2022-12-16T06:07:18;55.40;;;31.63;;
14619;SDS011;32125;48.518;9.050;2022-12-16T06:10:03;52.13;;;31.10;;
14619;SDS011;32125;48.518;9.050;2022-12-16T06:12:47;54.33;;;30.97;;
14619;SDS011;32125;48.518;9.050;2022-12-16T06:15:32;54.07;;;31.73;;
14619;SDS011;32125;48.518;9.050;2022-12-16T06:18:16;56.20;;;31.47;;
14619;SDS011;32125;48.518;9.050;2022-12-16T06:21:01;53.87;;;31.00;;
14619;SDS011;32125;48.518;9.050;2022-12-16T06:23:45;55.20;;;32.17;;
14619;SDS011;32125;48.518;9.050;2022-12-16T06:26:30;53.03;;;31.20;;
14619;SDS011;32125;48.518;9.050;2022-12-16T06:29:14;50.93;;;31.33;;
14619;SDS011;32125;48.518;9.050;2022-12-16T06:31:59;53.27;;;31.70;;
14619;SDS011;32125;48.518;9.050;2022-12-16T06:34:44;52.20;;;31.77;;
14619;SDS011;32125;48.518;9.050;2022-12-16T06:37:32;53.37;;;31.70;;
14619;SDS011;32125;48.518;9.050;2022-12-16T06:40:17;49.27;;;30.37;;
14619;SDS011;32125;48.518;9.050;2022-12-16T06:43:01;49.43;;;29.63;;
14619;SDS011;32125;48.518;9.050;2022-12-16T06:45:46;56.20;;;32.13;;
14619;SDS011;32125;48.518;9.050;2022-12-16T06:48:33;52.90;;;31.33;;
14619;SDS011;32125;48.518;9.050;2022-12-16T06:51:17;53.70;;;30.97;;
14619;SDS011;32125;48.518;9.050;2022-12-16T06:54:01;48.13;;;28.47;;
14619;SDS011;32125;48.518;9.050;2022-12-16T06:56:46;47.63;;;29.27;;
14619;SDS011;32125;48.518;9.050;2022-12-16T06:59:30;50.43;;;30.90;;
14619;SDS011;32125;48.518;9.050;2022-12-16T07:02:15;56.10;;;32.50;;
14619;SDS011;32125;48.518;9.050;2022-12-16T07:04:59;48.60;;;28.87;;
14619;SDS011;32125;48.518;9.050;2022-12-16T07:07:50;47.07;;;29.57;;
14619;SDS011;32125;48.518;9.050;2022-12-16T07:10:35;50.97;;;29.83;;
14619;SDS011;32125;48.518;9.050;2022-12-16T07:13:19;50.20;;;30.47;;
14619;SDS011;32125;48.518;9.050;2022-12-16T07:16:04;50.93;;;30.03;;
14619;SDS011;32125;48.518;9.050;2022-12-16T07:18:48;43.23;;;28.60;;
14619;SDS011;32125;48.518;9.050;2022-12-16T07:21:33;49.33;;;28.90;;
14619;SDS011;32125;48.518;9.050;2022-12-16T07:24:18;44.80;;;27.30;;
14619;SDS011;32125;48.518;9.050;2022-12-16T07:27:02;45.10;;;27.83;;
14619;SDS011;32125;48.518;9.050;2022-12-16T07:29:47;42.67;;;26.60;;
14619;SDS011;32125;48.518;9.050;2022-12-16T07:32:31;42.50;;;25.80;;
14619;SDS011;32125;48.518;9.050;2022-12-16T07:35:20;43.37;;;25.93;;
14619;SDS011;32125;48.518;9.050;2022-12-16T07:38:05;39.83;;;25.10;;
14619;SDS011;32125;48.518;9.050;2022-12-16T07:40:51;42.60;;;25.13;;
14619;SDS011;32125;48.518;9.050;2022-12-16T07:43:35;38.83;;;23.47;;
14619;SDS011;32125;48.518;9.050;2022-12-16T07:46:20;31.97;;;20.77;;
14619;SDS011;32125;48.518;9.050;2022-12-16T07:49:05;36.57;;;23.13;;
14619;SDS011;32125;48.518;9.050;2022-12-16T07:51:49;36.87;;;22.90;;
14619;SDS011;32125;48.518;9.050;2022-12-16T07:54:34;28.77;;;18.23;;
14619;SDS011;32125;48.518;9.050;2022-12-16T07:57:18;31.60;;;20.73;;
14619;SDS011;32125;48.518;9.050;2022-12-16T08:00:14;30.73;;;19.10;;
14619;SDS011;32125;48.518;9.050;2022-12-16T08:02:58;39.37;;;24.40;;
14619;SDS011;32125;48.518;9.050;2022-12-16T08:05:43;42.17;;;26.10;;
14619;SDS011;32125;48.518;9.050;2022-12-16T08:08:27;40.47;;;24.70;;
14619;SDS011;32125;48.518;9.050;2022-12-16T08:11:12;50.27;;;32.77;;
14619;SDS011;32125;48.518;9.050;2022-12-16T08:13:57;47.77;;;29.60;;
14619;SDS011;32125;48.518;9.050;2022-12-16T08:16:41;46.70;;;28.87;;
14619;SDS011;32125;48.518;9.050;2022-12-16T08:19:26;50.23;;;29.57;;
14619;SDS011;32125;48.518;9.050;2022-12-16T08:22:13;47.10;;;28.50;;
14619;SDS011;32125;48.518;9.050;2022-12-16T08:24:58;46.20;;;28.10;;
14619;SDS011;32125;48.518;9.050;2022-12-16T08:27:43;45.67;;;27.03;;
14619;SDS011;32125;48.518;9.050;2022-12-16T08:30:27;43.43;;;27.00;;
14619;SDS011;32125;48.518;9.050;2022-12-16T08:33:11;46.30;;;26.97;;
14619;SDS011;32125;48.518;9.050;2022-12-16T08:35:57;43.33;;;27.37;;
14619;SDS011;32125;48.518;9.050;2022-12-16T08:38:42;45.60;;;25.73;;
14619;SDS011;32125;48.518;9.050;2022-12-16T08:41:26;43.47;;;25.93;;
14619;SDS011;32125;48.518;9.050;2022-12-16T08:44:21;41.63;;;24.77;;
14619;SDS011;32125;48.518;9.050;2022-12-16T08:47:05;42.60;;;25.87;;
14619;SDS011;32125;48.518;9.050;2022-12-16T08:52:53;39.57;;;24.23;;
14619;SDS011;32125;48.518;9.050;2022-12-16T08:55:41;40.00;;;24.90;;
14619;SDS011;32125;48.518;9.050;2022-12-16T08:58:25;37.80;;;23.97;;
14619;SDS011;32125;48.518;9.050;2022-12-16T09:01:10;37.80;;;23.90;;
14619;SDS011;32125;48.518;9.050;2022-12-16T09:03:54;38.30;;;23.73;;
14619;SDS011;32125;48.518;9.050;2022-12-16T09:06:45;35.83;;;22.53;;
14619;SDS011;32125;48.518;9.050;2022-12-16T09:09:30;40.57;;;24.40;;
14619;SDS011;32125;48.518;9.050;2022-12-16T09:12:14;36.70;;;23.00;;
14619;SDS011;32125;48.518;9.050;2022-12-16T09:14:59;34.63;;;21.80;;
14619;SDS011;32125;48.518;9.050;2022-12-16T09:17:44;36.67;;;21.40;;
14619;SDS011;32125;48.518;9.050;2022-12-16T09:20:28;34.83;;;22.10;;
14619;SDS011;32125;48.518;9.050;2022-12-16T09:23:15;36.43;;;21.43;;
14619;SDS011;32125;48.518;9.050;2022-12-16T09:26:00;33.60;;;21.40;;
14619;SDS011;32125;48.518;9.050;2022-12-16T09:28:45;35.03;;;20.77;;
14619;SDS011;32125;48.518;9.050;2022-12-16T09:31:30;31.93;;;19.70;;
14619;SDS011;32125;48.518;9.050;2022-12-16T09:34:14;30.43;;;19.73;;
14619;SDS011;32125;48.518;9.050;2022-12-16T09:36:59;38.33;;;21.10;;
14619;SDS011;32125;48.518;9.050;2022-12-16T09:39:43;29.33;;;18.53;;
14619;SDS011;32125;48.518;9.050;2022-12-16T09:45:30;29.87;;;18.17;;
14619;SDS011;32125;48.518;9.050;2022-12-16T09:48:42;30.43;;;19.17;;
14619;SDS011;32125;48.518;9.050;2022-12-16T09:51:32;26.60;;;17.47;;
14619;SDS011;32125;48.518;9.050;2022-12-16T09:54:19;29.43;;;18.60;;
14619;SDS011;32125;48.518;9.050;2022-12-16T09:57:05;26.03;;;17.27;;
14619;SDS011;32125;48.518;9.050;2022-12-16T09:59:58;29.97;;;19.00;;
14619;SDS011;32125;48.518;9.050;2022-12-16T10:02:44;28.10;;;17.17;;
14619;SDS011;32125;48.518;9.050;2022-12-16T10:08:52;31.73;;;20.13;;
14619;SDS011;32125;48.518;9.050;2022-12-16T10:14:32;24.90;;;16.33;;
14619;SDS011;32125;48.518;9.050;2022-12-16T10:17:20;26.20;;;16.70;;
14619;SDS011;32125;48.518;9.050;2022-12-16T10:20:14;25.70;;;17.80;;
14619;SDS011;32125;48.518;9.050;2022-12-16T10:25:52;24.27;;;15.90;;
14619;SDS011;32125;48.518;9.050;2022-12-16T10:31:30;25.07;;;15.83;;
14619;SDS011;32125;48.518;9.050;2022-12-16T10:34:19;21.30;;;14.83;;
14619;SDS011;32125;48.518;9.050;2022-12-16T10:37:05;21.67;;;15.07;;
14619;SDS011;32125;48.518;9.050;2022-12-16T10:39:50;23.50;;;15.17;;
14619;SDS011;32125;48.518;9.050;2022-12-16T10:42:39;24.77;;;15.93;;
14619;SDS011;32125;48.518;9.050;2022-12-16T10:45:28;26.23;;;16.20;;
14619;SDS011;32125;48.518;9.050;2022-12-16T10:48:20;22.57;;;15.47;;
14619;SDS011;32125;48.518;9.050;2022-12-16T10:51:16;21.87;;;14.97;;
14619;SDS011;32125;48.518;9.050;2022-12-16T10:54:20;24.63;;;15.37;;
14619;SDS011;32125;48.518;9.050;2022-12-16T11:00:47;25.73;;;16.80;;
14619;SDS011;32125;48.518;9.050;2022-12-16T11:03:27;28.17;;;17.17;;
14619;SDS011;32125;48.518;9.050;2022-12-16T11:06:13;30.40;;;18.57;;
14619;SDS011;32125;48.518;9.050;2022-12-16T11:09:13;43.93;;;20.63;;
14619;SDS011;32125;48.518;9.050;2022-12-16T11:12:16;25.67;;;17.27;;
14619;SDS011;32125;48.518;9.050;2022-12-16T11:15:25;26.17;;;17.07;;
14619;SDS011;32125;48.518;9.050;2022-12-16T11:18:10;24.07;;;16.53;;
14619;SDS011;32125;48.518;9.050;2022-12-16T11:24:11;26.23;;;17.20;;
14619;SDS011;32125;48.518;9.050;2022-12-16T11:26:57;23.87;;;15.40;;
14619;SDS011;32125;48.518;9.050;2022-12-16T11:32:33;24.17;;;15.70;;
14619;SDS011;32125;48.518;9.050;2022-12-16T11:35:20;23.13;;;14.93;;
14619;SDS011;32125;48.518;9.050;2022-12-16T11:38:11;21.90;;;14.63;;
14619;SDS011;32125;48.518;9.050;2022-12-16T11:41:03;23.90;;;14.47;;
14619;SDS011;32125;48.518;9.050;2022-12-16T11:43:49;24.07;;;14.93;;
14619;SDS011;32125;48.518;9.050;2022-12-16T11:46:35;21.90;;;14.80;;
14619;SDS011;32125;48.518;9.050;2022-12-16T11:49:25;21.50;;;14.67;;
14619;SDS011;32125;48.518;9.050;2022-12-16T11:52:13;20.30;;;13.80;;
14619;SDS011;32125;48.518;9.050;2022-12-16T11:58:19;22.27;;;14.33;;
14619;SDS011;32125;48.518;9.050;2022-12-16T12:04:12;22.37;;;14.53;;
14619;SDS011;32125;48.518;9.050;2022-12-16T12:07:08;21.97;;;13.67;;
14619;SDS011;32125;48.518;9.050;2022-12-16T12:11:02;21.20;;;13.97;;
14619;SDS011;32125;48.518;9.050;2022-12-16T12:13:21;21.47;;;13.70;;
14619;SDS011;32125;48.518;9.050;2022-12-16T12:19:42;18.37;;;12.77;;
14619;SDS011;32125;48.518;9.050;2022-12-16T12:22:40;18.63;;;13.50;;
14619;SDS011;32125;48.518;9.050;2022-12-16T12:34:00;17.80;;;12.70;;
14619;SDS011;32125;48.518;9.050;2022-12-16T12:37:35;21.60;;;12.87;;
14619;SDS011;32125;48.518;9.050;2022-12-16T12:43:17;18.13;;;11.73;;
14619;SDS011;32125;48.518;9.050;2022-12-16T12:46:07;18.47;;;11.47;;
14619;SDS011;32125;48.518;9.050;2022-12-16T12:57:43;18.00;;;11.57;;
14619;SDS011;32125;48.518;9.050;2022-12-16T13:00:29;15.40;;;10.47;;
14619;SDS011;32125;48.518;9.050;2022-12-16T13:06:27;17.17;;;11.33;;
14619;SDS011;32125;48.518;9.050;2022-12-16T13:09:29;14.40;;;10.60;;
14619;SDS011;32125;48.518;9.050;2022-12-16T13:15:09;15.47;;;10.13;;
14619;SDS011;32125;48.518;9.050;2022-12-16T13:18:33;15.23;;;9.90;;
14619;SDS011;32125;48.518;9.050;2022-12-16T13:27:21;15.87;;;9.83;;
14619;SDS011;32125;48.518;9.050;2022-12-16T13:32:53;16.30;;;10.40;;
14619;SDS011;32125;48.518;9.050;2022-12-16T13:35:55;14.40;;;10.30;;
14619;SDS011;32125;48.518;9.050;2022-12-16T13:38:49;15.53;;;9.73;;
14619;SDS011;32125;48.518;9.050;2022-12-16T13:47:30;13.73;;;9.43;;
14619;SDS011;32125;48.518;9.050;2022-12-16T13:53:42;14.10;;;10.60;;
14619;SDS011;32125;48.518;9.050;2022-12-16T13:56:33;17.30;;;11.00;;
14619;SDS011;32125;48.518;9.050;2022-12-16T14:01:55;16.53;;;10.03;;
14619;SDS011;32125;48.518;9.050;2022-12-16T14:07:29;14.17;;;10.03;;
14619;SDS011;32125;48.518;9.050;2022-12-16T14:13:07;14.47;;;10.20;;
14619;SDS011;32125;48.518;9.050;2022-12-16T14:16:00;15.53;;;9.53;;
14619;SDS011;32125;48.518;9.050;2022-12-16T14:21:44;15.50;;;9.87;;
14619;SDS011;32125;48.518;9.050;2022-12-16T14:24:33;12.93;;;9.17;;
14619;SDS011;32125;48.518;9.050;2022-12-16T14:27:18;15.97;;;10.07;;
14619;SDS011;32125;48.518;9.050;2022-12-16T14:30:17;16.07;;;9.97;;
14619;SDS011;32125;48.518;9.050;2022-12-16T14:36:27;15.20;;;10.03;;
14619;SDS011;32125;48.518;9.050;2022-12-16T14:39:19;15.77;;;9.97;;
14619;SDS011;32125;48.518;9.050;2022-12-16T14:42:13;13.87;;;9.87;;
14619;SDS011;32125;48.518;9.050;2022-12-16T14:44:59;17.20;;;10.07;;
14619;SDS011;32125;48.518;9.050;2022-12-16T14:47:44;16.47;;;10.83;;
14619;SDS011;32125;48.518;9.050;2022-12-16T14:50:28;15.47;;;9.90;;
14619;SDS011;32125;48.518;9.050;2022-12-16T15:01:52;16.87;;;10.40;;
14619;SDS011;32125;48.518;9.050;2022-12-16T15:04:49;15.80;;;10.43;;
14619;SDS011;32125;48.518;9.050;2022-12-16T15:07:36;14.83;;;10.33;;
14619;SDS011;32125;48.518;9.050;2022-12-16T15:10:24;15.93;;;10.53;;
14619;SDS011;32125;48.518;9.050;2022-12-16T15:13:12;14.90;;;10.57;;
14619;SDS011;32125;48.518;9.050;2022-12-16T15:15:58;16.27;;;10.80;;
14619;SDS011;32125;48.518;9.050;2022-12-16T15:18:43;17.27;;;10.50;;
14619;SDS011;32125;48.518;9.050;2022-12-16T15:21:32;14.83;;;10.50;;
14619;SDS011;32125;48.518;9.050;2022-12-16T15:40:23;19.23;;;10.60;;
14619;SDS011;32125;48.518;9.050;2022-12-16T16:02:04;16.43;;;10.67;;
14619;SDS011;32125;48.518;9.050;2022-12-16T16:04:52;16.77;;;10.93;;
14619;SDS011;32125;48.518;9.050;2022-12-16T16:07:36;14.60;;;10.03;;
14619;SDS011;32125;48.518;9.050;2022-12-16T16:10:23;16.30;;;10.73;;
14619;SDS011;32125;48.518;9.050;2022-12-16T16:13:08;18.67;;;10.63;;
14619;SDS011;32125;48.518;9.050;2022-12-16T16:15:53;19.97;;;10.93;;
14619;SDS011;32125;48.518;9.050;2022-12-16T16:18:38;17.87;;;11.37;;
14619;SDS011;32125;48.518;9.050;2022-12-16T16:21:24;16.10;;;10.60;;
14619;SDS011;32125;48.518;9.050;2022-12-16T16:33:37;19.10;;;12.10;;
14619;SDS011;32125;48.518;9.050;2022-12-16T16:36:22;18.83;;;11.87;;
14619;SDS011;32125;48.518;9.050;2022-12-16T16:39:09;17.67;;;11.93;;
14619;SDS011;32125;48.518;9.050;2022-12-16T16:41:54;17.93;;;12.10;;
14619;SDS011;32125;48.518;9.050;2022-12-16T16:44:38;15.00;;;10.77;;
14619;SDS011;32125;48.518;9.050;2022-12-16T16:47:22;18.77;;;11.00;;
14619;SDS011;32125;48.518;9.050;2022-12-16T16:50:11;16.73;;;10.87;;
14619;SDS011;32125;48.518;9.050;2022-12-16T16:52:57;17.40;;;10.63;;
14619;SDS011;32125;48.518;9.050;2022-12-16T16:55:41;18.80;;;11.33;;
14619;SDS011;32125;48.518;9.050;2022-12-16T16:58:27;16.50;;;10.87;;
14619;SDS011;32125;48.518;9.050;2022-12-16T17:01:15;18.63;;;10.03;;
14619;SDS011;32125;48.518;9.050;2022-12-16T17:04:00;17.30;;;10.73;;
14619;SDS011;32125;48.518;9.050;2022-12-16T17:06:45;18.83;;;11.57;;
14619;SDS011;32125;48.518;9.050;2022-12-16T17:09:29;20.00;;;11.90;;
14619;SDS011;32125;48.518;9.050;2022-12-16T17:12:18;16.73;;;11.53;;
14619;SDS011;32125;48.518;9.050;2022-12-16T17:15:10;17.23;;;11.60;;
14619;SDS011;32125;48.518;9.050;2022-12-16T17:17:56;19.30;;;11.33;;
14619;SDS011;32125;48.518;9.050;2022-12-16T17:20:40;19.13;;;11.53;;
14619;SDS011;32125;48.518;9.050;2022-12-16T17:23:25;20.70;;;11.83;;
14619;SDS011;32125;48.518;9.050;2022-12-16T17:26:10;17.17;;;12.13;;
14619;SDS011;32125;48.518;9.050;2022-12-16T17:28:54;22.60;;;11.97;;
14619;SDS011;32125;48.518;9.050;2022-12-16T17:31:38;18.90;;;12.50;;
14619;SDS011;32125;48.518;9.050;2022-12-16T17:34:23;21.20;;;12.13;;
14619;SDS011;32125;48.518;9.050;2022-12-16T17:37:07;16.83;;;11.43;;
14619;SDS011;32125;48.518;9.050;2022-12-16T17:39:52;17.53;;;11.17;;
14619;SDS011;32125;48.518;9.050;2022-12-16T17:42:37;16.60;;;10.70;;
14619;SDS011;32125;48.518;9.050;2022-12-16T17:45:21;16.03;;;11.00;;
14619;SDS011;32125;48.518;9.050;2022-12-16T17:48:06;14.87;;;10.57;;
14619;SDS011;32125;48.518;9.050;2022-12-16T17:50:50;19.17;;;11.13;;
14619;SDS011;32125;48.518;9.050;2022-12-16T17:53:35;16.20;;;11.67;;
14619;SDS011;32125;48.518;9.050;2022-12-16T17:56:20;18.50;;;10.57;;
14619;SDS011;32125;48.518;9.050;2022-12-16T17:59:04;16.93;;;10.87;;
14619;SDS011;32125;48.518;9.050;2022-12-16T18:01:49;19.07;;;11.30;;
14619;SDS011;32125;48.518;9.050;2022-12-16T18:04:33;19.10;;;11.37;;
14619;SDS011;32125;48.518;9.050;2022-12-16T18:07:18;18.73;;;11.63;;
14619;SDS011;32125;48.518;9.050;2022-12-16T18:10:03;17.00;;;11.63;;
14619;SDS011;32125;48.518;9.050;2022-12-16T18:12:48;19.43;;;12.70;;
14619;SDS011;32125;48.518;9.050;2022-12-16T18:15:32;19.40;;;12.70;;
14619;SDS011;32125;48.518;9.050;2022-12-16T18:18:16;18.80;;;13.00;;
14619;SDS011;32125;48.518;9.050;2022-12-16T18:21:08;20.43;;;13.30;;
14619;SDS011;32125;48.518;9.050;2022-12-16T18:23:54;19.47;;;13.27;;
14619;SDS011;32125;48.518;9.050;2022-12-16T18:26:42;20.50;;;13.07;;
14619;SDS011;32125;48.518;9.050;2022-12-16T18:29:26;20.37;;;13.60;;
14619;SDS011;32125;48.518;9.050;2022-12-16T18:32:11;22.50;;;14.33;;
14619;SDS011;32125;48.518;9.050;2022-12-16T18:34:55;22.80;;;13.97;;
14619;SDS011;32125;48.518;9.050;2022-12-16T18:37:40;19.07;;;13.07;;
14619;SDS011;32125;48.518;9.050;2022-12-16T18:40:24;19.30;;;12.93;;
14619;SDS011;32125;48.518;9.050;2022-12-16T18:43:09;19.10;;;13.37;;
14619;SDS011;32125;48.518;9.050;2022-12-16T18:45:54;23.83;;;16.17;;
14619;SDS011;32125;48.518;9.050;2022-12-16T18:48:38;21.60;;;14.73;;
14619;SDS011;32125;48.518;9.050;2022-12-16T18:51:23;18.53;;;13.07;;
14619;SDS011;32125;48.518;9.050;2022-12-16T18:54:08;20.47;;;13.33;;
14619;SDS011;32125;48.518;9.050;2022-12-16T18:56:53;18.47;;;12.13;;
14619;SDS011;32125;48.518;9.050;2022-12-16T18:59:38;17.60;;;12.37;;
14619;SDS011;32125;48.518;9.050;2022-12-16T19:02:23;17.73;;;12.90;;
14619;SDS011;32125;48.518;9.050;2022-12-16T19:05:07;17.73;;;12.77;;
14619;SDS011;32125;48.518;9.050;2022-12-16T19:07:52;17.63;;;12.63;;